createdAt,value
2022-08-05T00:01:36.160Z,1.52
2022-08-05T00:04:15.308Z,1.55
2022-08-05T00:06:43.043Z,1.50
2022-08-05T00:09:13.188Z,1.60
2022-08-05T00:11:49.404Z,1.60
2022-08-05T00:14:22.375Z,1.77
2022-08-05T00:16:54.561Z,1.50
2022-08-05T00:19:22.661Z,1.48
2022-08-05T00:21:50.152Z,1.33
2022-08-05T00:24:24.106Z,1.42
2022-08-05T00:26:52.847Z,1.48
2022-08-05T00:29:25.658Z,1.50
2022-08-05T00:32:10.942Z,1.45
2022-08-05T00:34:43.361Z,1.60
2022-08-05T00:37:35.414Z,1.50
2022-08-05T00:40:17.763Z,1.50
2022-08-05T00:42:54.399Z,1.80
2022-08-05T00:45:28.120Z,1.55
2022-08-05T00:48:05.291Z,1.60
2022-08-05T00:50:32.587Z,1.48
2022-08-05T00:52:59.590Z,1.38
2022-08-05T00:55:42.624Z,1.55
2022-08-05T00:58:13.610Z,1.60
2022-08-05T01:00:40.418Z,1.60
2022-08-05T01:03:08.894Z,1.73
2022-08-05T01:05:35.857Z,1.58
2022-08-05T01:08:40.148Z,1.65
2022-08-05T01:10:59.745Z,1.65
2022-08-05T01:14:27.818Z,1.50
2022-08-05T01:17:10.980Z,1.73
2022-08-05T01:20:00.770Z,1.60
2022-08-05T01:22:35.747Z,1.63
2022-08-05T01:25:40.356Z,1.52
2022-08-05T01:28:11.282Z,1.55
2022-08-05T01:30:53.858Z,1.58
2022-08-05T01:33:25.200Z,1.88
2022-08-05T01:35:53.527Z,1.63
2022-08-05T01:38:27.101Z,1.55
2022-08-05T01:40:58.144Z,1.60
2022-08-05T01:43:24.833Z,1.52
2022-08-05T01:45:56.192Z,1.80
2022-08-05T01:48:25.105Z,1.55
2022-08-05T01:50:51.823Z,1.75
2022-08-05T01:53:37.350Z,1.63
2022-08-05T01:56:05.380Z,1.65
2022-08-05T01:58:40.812Z,1.60
2022-08-05T02:01:12.633Z,1.40
2022-08-05T02:03:42.408Z,1.40
2022-08-05T02:06:33.844Z,1.40
2022-08-05T02:08:58.838Z,1.55
2022-08-05T02:11:33.210Z,1.73
2022-08-05T02:14:03.133Z,1.80
2022-08-05T02:16:34.865Z,1.90
2022-08-05T02:19:27.663Z,1.50
2022-08-05T02:21:59.046Z,1.48
2022-08-05T02:24:28.214Z,1.45
2022-08-05T02:26:56.917Z,1.63
2022-08-05T02:29:59.135Z,1.95
2022-08-05T02:32:11.635Z,1.60
2022-08-05T02:37:22.041Z,1.60
2022-08-05T02:39:51.735Z,1.60
2022-08-05T02:42:25.996Z,2.00
2022-08-05T02:44:54.165Z,1.70
2022-08-05T02:47:21.425Z,1.60
2022-08-05T02:49:48.147Z,1.40
2022-08-05T02:52:25.985Z,1.80
2022-08-05T02:55:01.991Z,1.92
2022-08-05T02:58:09.415Z,1.87
2022-08-05T03:00:18.746Z,1.65
2022-08-05T03:02:45.420Z,1.90
2022-08-05T03:05:12.237Z,1.95
2022-08-05T03:08:01.007Z,1.98
2022-08-05T03:10:26.091Z,1.73
2022-08-05T03:12:53.021Z,1.80
2022-08-05T03:15:20.222Z,1.85
2022-08-05T03:17:46.947Z,1.73
2022-08-05T03:20:13.902Z,1.80
2022-08-05T03:22:44.070Z,1.50
2022-08-05T03:25:32.612Z,1.70
2022-08-05T03:28:01.506Z,1.90
2022-08-05T03:30:33.698Z,1.90
2022-08-05T03:33:01.855Z,1.63
2022-08-05T03:35:28.854Z,1.83
2022-08-05T03:37:59.300Z,1.80
2022-08-05T03:40:31.952Z,1.98
2022-08-05T03:42:59.530Z,2.10
2022-08-05T03:45:57.188Z,1.70
2022-08-05T03:48:29.107Z,1.60
2022-08-05T03:52:38.875Z,1.88
2022-08-05T03:55:51.843Z,1.60
2022-08-05T03:56:58.975Z,2.03
2022-08-05T03:59:46.960Z,1.83
2022-08-05T04:02:38.271Z,1.75
2022-08-05T04:05:04.707Z,1.83
2022-08-05T04:07:36.829Z,2.08
2022-08-05T04:10:23.526Z,1.73
2022-08-05T04:12:54.292Z,1.60
2022-08-05T04:15:24.539Z,1.95
2022-08-05T04:17:57.198Z,2.00
2022-08-05T04:20:24.280Z,1.85
2022-08-05T04:22:50.935Z,1.65
2022-08-05T04:25:17.778Z,2.00
2022-08-05T04:27:57.613Z,1.83
2022-08-05T04:30:26.622Z,1.77
2022-08-05T04:32:53.407Z,2.08
2022-08-05T04:35:20.170Z,1.70
2022-08-05T04:38:01.091Z,1.70
2022-08-05T04:40:32.817Z,1.67
2022-08-05T04:42:59.535Z,2.10
2022-08-05T04:45:48.351Z,2.03
2022-08-05T04:48:18.592Z,2.08
2022-08-05T04:51:03.674Z,1.70
2022-08-05T04:53:38.888Z,1.75
2022-08-05T04:56:15.441Z,2.00
2022-08-05T04:58:55.807Z,2.00
2022-08-05T05:02:05.470Z,2.35
2022-08-05T05:04:09.758Z,2.03
2022-08-05T05:06:42.284Z,2.15
2022-08-05T05:09:14.129Z,2.00
2022-08-05T05:11:55.596Z,1.80
2022-08-05T05:14:28.128Z,1.85
2022-08-05T05:16:59.438Z,1.75
2022-08-05T05:19:26.629Z,1.83
2022-08-05T05:22:22.967Z,1.45
2022-08-05T05:24:57.470Z,1.83
2022-08-05T05:27:45.221Z,1.52
2022-08-05T05:30:28.713Z,1.70
2022-08-05T05:32:57.068Z,1.70
2022-08-05T05:35:29.051Z,2.10
2022-08-05T05:38:02.455Z,1.83
2022-08-05T05:40:29.894Z,2.05
2022-08-05T05:42:57.099Z,1.85
2022-08-05T05:45:24.559Z,1.70
2022-08-05T05:48:06.762Z,2.03
2022-08-05T05:50:35.661Z,1.70
2022-08-05T05:53:22.518Z,2.00
2022-08-05T05:55:51.980Z,1.75
2022-08-05T05:58:31.926Z,2.10
2022-08-05T06:01:02.199Z,1.90
2022-08-05T06:04:02.121Z,1.67
2022-08-05T06:06:34.708Z,2.13
2022-08-05T06:09:03.227Z,1.77
2022-08-05T06:11:31.823Z,1.90
2022-08-05T06:14:00.391Z,2.17
2022-08-05T06:16:32.878Z,1.88
2022-08-05T06:19:05.653Z,2.08
2022-08-05T06:21:36.949Z,2.20
2022-08-05T06:24:12.193Z,2.40
2022-08-05T06:26:51.464Z,1.95
2022-08-05T06:29:25.146Z,2.00
2022-08-05T06:32:24.792Z,2.20
2022-08-05T06:34:53.485Z,2.42
2022-08-05T06:37:55.603Z,2.00
2022-08-05T06:40:10.511Z,1.77
2022-08-05T06:42:39.867Z,2.10
2022-08-05T06:45:08.838Z,2.08
2022-08-05T06:48:37.044Z,2.20
2022-08-05T06:50:23.716Z,2.20
2022-08-05T06:53:03.465Z,2.25
2022-08-05T06:55:37.480Z,2.10
2022-08-05T06:58:19.925Z,2.38
2022-08-05T07:00:59.842Z,2.28
2022-08-05T07:03:34.766Z,2.08
2022-08-05T07:09:40.478Z,2.10
2022-08-05T07:14:54.081Z,1.60
2022-08-05T07:18:29.176Z,2.08
2022-08-05T07:22:00.585Z,1.63
2022-08-05T07:43:33.301Z,1.95
2022-08-05T07:46:01.653Z,1.80
2022-08-05T07:49:00.650Z,2.20
2022-08-05T07:51:23.355Z,2.03
2022-08-05T07:54:02.833Z,2.05
2022-08-05T07:56:59.911Z,2.03
2022-08-05T07:59:17.268Z,2.30
2022-08-05T08:01:57.644Z,2.42
2022-08-05T08:07:59.114Z,2.20
2022-08-05T08:10:27.434Z,2.42
2022-08-05T08:12:54.024Z,2.55
2022-08-05T08:15:37.219Z,2.80
2022-08-05T08:18:14.315Z,2.60
2022-08-05T08:21:00.108Z,2.40
2022-08-05T08:24:01.279Z,2.33
2022-08-05T08:26:14.955Z,2.17
2022-08-05T08:28:59.628Z,2.50
2022-08-05T08:31:28.280Z,2.50
2022-08-05T08:33:59.652Z,2.25
2022-08-05T08:36:38.778Z,2.08
2022-08-05T08:39:15.351Z,2.35
2022-08-05T08:42:34.445Z,2.03
2022-08-05T08:45:23.263Z,2.50
2022-08-05T08:48:06.146Z,2.15
2022-08-05T08:51:03.700Z,2.10
2022-08-05T08:53:45.234Z,2.00
2022-08-05T08:56:12.524Z,2.38
2022-08-05T08:58:48.009Z,2.15
2022-08-05T09:01:57.492Z,2.28
2022-08-05T09:05:38.913Z,2.45
2022-08-05T09:08:03.418Z,2.10
2022-08-05T09:10:32.219Z,1.70
2022-08-05T09:13:04.523Z,2.00
2022-08-05T09:15:32.130Z,1.83
2022-08-05T09:18:06.851Z,1.92
2022-08-05T09:20:37.658Z,1.90
2022-08-05T09:23:09.894Z,1.80
2022-08-05T09:26:03.068Z,1.77
2022-08-05T09:31:18.178Z,1.60
2022-08-05T09:34:03.367Z,1.63
2022-08-05T09:36:56.205Z,1.85
2022-08-05T09:39:52.252Z,1.90
2022-08-05T09:42:24.142Z,1.60
2022-08-05T09:47:49.103Z,1.90
2022-08-05T09:50:37.594Z,1.70
2022-08-05T09:53:15.754Z,1.70
2022-08-05T09:56:03.699Z,1.75
2022-08-05T09:58:32.212Z,1.80
2022-08-05T10:01:13.586Z,1.67
2022-08-05T10:04:02.091Z,1.60
2022-08-05T10:06:31.145Z,1.75
2022-08-05T10:09:25.150Z,1.60
2022-08-05T10:11:55.277Z,1.73
2022-08-05T10:14:32.241Z,1.90
2022-08-05T10:17:19.952Z,2.00
2022-08-05T10:20:03.778Z,1.90
2022-08-05T10:22:37.962Z,1.77
2022-08-05T10:25:09.992Z,2.00
2022-08-05T10:28:12.791Z,2.00
2022-08-05T10:32:48.395Z,1.65
2022-08-05T10:33:14.903Z,1.88
2022-08-05T10:35:44.081Z,1.90
2022-08-05T10:38:11.827Z,1.95
2022-08-05T10:40:51.456Z,1.90
2022-08-05T10:43:47.503Z,1.70
2022-08-05T10:46:16.821Z,1.60
2022-08-05T10:48:58.107Z,1.70
2022-08-05T10:51:28.547Z,1.67
2022-08-05T10:54:01.085Z,1.40
2022-08-05T10:56:47.464Z,1.80
2022-08-05T11:00:04.323Z,1.58
2022-08-05T11:02:14.532Z,1.55
2022-08-05T11:05:00.228Z,1.60
2022-08-05T11:07:32.959Z,1.73
2022-08-05T11:10:22.432Z,1.52
2022-08-05T11:12:55.631Z,1.52
2022-08-05T11:15:23.457Z,2.05
2022-08-05T11:18:30.164Z,1.80
2022-08-05T11:20:59.231Z,1.60
2022-08-05T11:24:03.166Z,1.55
2022-08-05T11:26:28.904Z,1.55
2022-08-05T11:29:12.123Z,1.25
2022-08-05T11:31:57.148Z,1.60
2022-08-05T11:34:51.805Z,1.45
2022-08-05T11:38:30.027Z,1.30
2022-08-05T11:41:14.169Z,1.40
2022-08-05T11:44:02.809Z,1.25
2022-08-05T11:46:37.801Z,1.40
2022-08-05T11:49:24.772Z,1.20
2022-08-05T11:51:51.961Z,1.38
2022-08-05T11:54:33.457Z,1.20
2022-08-05T11:57:01.731Z,1.17
2022-08-05T11:59:49.782Z,1.02
2022-08-05T12:02:30.475Z,1.35
2022-08-05T12:05:00.064Z,1.10
2022-08-05T12:08:02.699Z,1.25
2022-08-05T12:10:13.888Z,1.15
2022-08-05T12:12:55.387Z,1.08
2022-08-05T12:15:38.291Z,1.08
2022-08-05T12:18:11.001Z,1.13
2022-08-05T12:20:39.259Z,1.20
2022-08-05T12:23:10.233Z,1.20
2022-08-05T12:26:09.405Z,1.00
2022-08-05T12:28:39.177Z,1.02
2022-08-05T12:31:05.966Z,0.90
2022-08-05T12:33:37.194Z,1.25
2022-08-05T12:36:07.908Z,1.10
2022-08-05T12:38:39.652Z,1.00
2022-08-05T12:41:13.345Z,1.20
2022-08-05T12:43:55.353Z,1.20
2022-08-05T12:46:33.035Z,1.05
2022-08-05T12:49:19.964Z,1.02
2022-08-05T12:52:13.860Z,1.30
2022-08-05T12:54:46.526Z,1.10
2022-08-05T12:57:16.435Z,1.20
2022-08-05T13:01:58.670Z,1.20
2022-08-05T13:02:35.977Z,1.10
2022-08-05T13:05:05.907Z,1.10
2022-08-05T13:07:57.572Z,1.30
2022-08-05T13:10:19.414Z,1.20
2022-08-05T13:12:57.175Z,1.10
2022-08-05T13:15:41.294Z,0.98
2022-08-05T13:18:19.857Z,1.30
2022-08-05T13:20:47.605Z,1.20
2022-08-05T13:23:18.016Z,1.00
2022-08-05T13:25:52.837Z,1.20
2022-08-05T13:28:27.194Z,1.33
2022-08-05T13:30:53.933Z,1.17
2022-08-05T13:34:21.274Z,1.15
2022-08-05T13:36:10.692Z,1.15
2022-08-05T13:38:41.904Z,1.10
2022-08-05T13:41:10.548Z,1.13
2022-08-05T13:43:45.034Z,1.05
2022-08-05T13:46:50.544Z,1.10
2022-08-05T13:49:12.040Z,1.17
2022-08-05T13:51:41.078Z,1.15
2022-08-05T13:54:13.238Z,1.17
2022-08-05T13:56:45.217Z,1.30
2022-08-05T13:59:24.098Z,1.20
2022-08-05T14:01:57.633Z,1.13
2022-08-05T14:04:29.173Z,1.17
2022-08-05T14:06:58.744Z,1.00
2022-08-05T14:09:45.947Z,1.25
2022-08-05T14:12:18.042Z,1.23
2022-08-05T14:14:59.122Z,1.23
2022-08-05T14:17:25.832Z,1.17
2022-08-05T14:19:59.665Z,1.40
2022-08-05T14:22:30.536Z,1.40
2022-08-05T14:25:06.111Z,1.10
2022-08-05T14:27:47.357Z,1.00
2022-08-05T14:30:20.478Z,1.15
2022-08-05T14:32:48.081Z,1.40
2022-08-05T14:35:14.772Z,1.25
2022-08-05T14:37:48.184Z,1.52
2022-08-05T14:40:17.094Z,1.10
2022-08-05T14:42:44.003Z,1.05
2022-08-05T14:45:10.757Z,1.08
2022-08-05T14:48:04.175Z,1.05
2022-08-05T14:50:25.436Z,1.13
2022-08-05T14:52:56.968Z,1.20
2022-08-05T14:55:26.246Z,1.23
2022-08-05T14:58:10.897Z,1.15
2022-08-05T15:00:38.733Z,0.93
2022-08-05T15:03:05.569Z,1.00
2022-08-05T15:06:07.656Z,1.30
2022-08-05T15:08:57.972Z,1.30
2022-08-05T15:11:09.609Z,1.08
2022-08-05T15:13:45.945Z,1.35
2022-08-05T15:16:16.235Z,1.10
2022-08-05T15:18:43.774Z,1.02
2022-08-05T15:21:14.008Z,1.20
2022-08-05T15:23:40.835Z,1.02
2022-08-05T15:26:07.543Z,1.10
2022-08-05T15:28:35.420Z,1.20
2022-08-05T15:31:09.846Z,0.80
2022-08-05T15:34:18.536Z,1.10
2022-08-05T15:36:24.446Z,1.10
2022-08-05T15:41:00.149Z,1.00
2022-08-05T15:41:58.502Z,1.13
2022-08-05T15:44:27.403Z,1.13
2022-08-05T15:46:55.585Z,0.98
2022-08-05T15:49:40.859Z,1.10
2022-08-05T15:52:16.157Z,1.10
2022-08-05T15:54:55.685Z,1.02
2022-08-05T15:57:23.487Z,1.20
2022-08-05T15:59:54.016Z,1.00
2022-08-05T16:02:27.714Z,1.10
2022-08-05T16:04:55.459Z,0.93
2022-08-05T16:07:22.929Z,0.90
2022-08-05T16:09:49.774Z,1.10
2022-08-05T16:12:16.717Z,0.80
2022-08-05T16:14:46.527Z,1.00
2022-08-05T16:17:13.358Z,1.00
2022-08-05T16:20:04.987Z,1.10
2022-08-05T16:22:27.856Z,1.20
2022-08-05T16:25:07.963Z,1.00
2022-08-05T16:27:59.721Z,1.35
2022-08-05T16:30:26.728Z,1.20
2022-08-05T16:32:55.718Z,0.93
2022-08-05T16:35:28.531Z,1.08
2022-08-05T16:38:02.468Z,0.90
2022-08-05T16:40:51.798Z,1.10
2022-08-05T16:43:23.739Z,0.70
2022-08-05T16:46:04.278Z,0.70
2022-08-05T16:48:39.599Z,1.00
2022-08-05T16:51:09.669Z,1.17
2022-08-05T16:54:05.422Z,0.95
2022-08-05T16:56:27.847Z,0.73
2022-08-05T16:58:54.921Z,1.02
2022-08-05T17:01:21.999Z,1.15
2022-08-05T17:03:50.953Z,0.90
2022-08-05T17:06:17.880Z,0.95
2022-08-05T17:08:52.702Z,1.10
2022-08-05T17:11:25.527Z,0.80
2022-08-05T17:14:00.279Z,0.80
2022-08-05T17:16:36.400Z,1.08
2022-08-05T17:19:07.582Z,1.10
2022-08-05T17:21:37.177Z,1.48
2022-08-05T17:24:19.830Z,1.20
2022-08-05T17:26:52.318Z,1.40
2022-08-05T17:29:22.345Z,1.20
2022-08-05T17:31:58.665Z,1.25
2022-08-05T17:34:29.927Z,1.05
2022-08-05T17:37:00.073Z,1.40
2022-08-05T17:39:33.574Z,1.10
2022-08-05T17:44:51.230Z,1.10
2022-08-05T17:47:22.423Z,1.23
2022-08-05T17:50:03.494Z,1.45
2022-08-05T17:52:53.037Z,1.38
2022-08-05T17:55:34.088Z,1.08
2022-08-05T17:58:01.468Z,1.35
2022-08-05T18:00:29.279Z,1.35
2022-08-05T18:02:56.454Z,1.27
2022-08-05T18:05:23.801Z,1.50
2022-08-05T18:07:54.908Z,1.05
2022-08-05T18:10:23.617Z,1.33
2022-08-05T18:12:50.374Z,1.10
2022-08-05T18:15:17.318Z,1.00
2022-08-05T18:17:59.194Z,1.10
2022-08-05T18:20:31.565Z,1.33
2022-08-05T18:23:00.654Z,1.00
2022-08-05T18:25:35.872Z,1.30
2022-08-05T18:28:05.101Z,1.20
2022-08-05T18:30:32.351Z,1.50
2022-08-05T18:33:00.388Z,1.55
2022-08-05T18:36:00.773Z,1.33
2022-08-05T18:38:19.449Z,1.40
2022-08-05T18:41:56.736Z,1.48
2022-08-05T18:43:42.845Z,1.25
2022-08-05T18:46:20.001Z,1.33
2022-08-05T18:48:52.162Z,1.38
2022-08-05T18:52:04.745Z,1.45
2022-08-05T18:54:09.541Z,1.42
2022-08-05T18:56:36.203Z,1.38
2022-08-05T18:59:17.006Z,1.23
2022-08-05T19:01:57.269Z,1.50
2022-08-05T19:04:25.512Z,1.50
2022-08-05T19:06:53.612Z,1.55
2022-08-05T19:09:21.169Z,1.40
2022-08-05T19:12:00.100Z,1.33
2022-08-05T19:14:44.932Z,1.50
2022-08-05T19:17:16.540Z,1.70
2022-08-05T19:19:44.174Z,1.40
2022-08-05T19:22:17.301Z,1.50
2022-08-05T19:24:54.325Z,1.48
2022-08-05T19:27:30.276Z,1.30
2022-08-05T19:29:57.366Z,1.40
2022-08-05T19:32:26.118Z,1.40
2022-08-05T19:34:55.670Z,1.48
2022-08-05T19:37:35.182Z,1.50
2022-08-05T19:40:10.943Z,1.38
2022-08-05T19:42:37.757Z,1.10
2022-08-05T19:45:06.941Z,1.50
2022-08-05T19:47:34.960Z,1.38
2022-08-05T19:50:04.864Z,1.48
2022-08-05T19:52:34.245Z,1.30
2022-08-05T19:55:07.169Z,1.30
2022-08-05T19:58:07.023Z,1.50
2022-08-05T20:00:36.248Z,1.30
2022-08-05T20:03:08.486Z,1.33
2022-08-05T20:05:42.968Z,1.40
2022-08-05T20:08:10.228Z,1.70
2022-08-05T20:10:36.835Z,1.92
2022-08-05T20:13:03.616Z,2.38
2022-08-05T20:15:50.864Z,2.60
2022-08-05T20:18:32.749Z,2.95
2022-08-05T20:21:00.853Z,2.80
2022-08-05T20:23:39.182Z,3.30
2022-08-05T20:26:16.223Z,3.70
2022-08-05T20:28:45.165Z,3.65
2022-08-05T20:31:11.866Z,3.83
2022-08-05T20:33:38.495Z,5.07
2022-08-05T20:36:10.055Z,6.20
2022-08-05T20:38:36.994Z,5.93
2022-08-05T20:41:05.265Z,5.97
2022-08-05T20:43:58.712Z,6.15
2022-08-05T20:46:24.925Z,6.10
2022-08-05T20:48:51.860Z,5.97
2022-08-05T20:51:19.066Z,5.97
2022-08-05T20:53:56.442Z,5.45
2022-08-05T20:56:29.886Z,5.68
2022-08-05T20:58:59.934Z,5.10
2022-08-05T21:01:38.835Z,4.85
2022-08-05T21:04:05.734Z,3.90
2022-08-05T21:06:33.255Z,3.25
2022-08-05T21:09:00.330Z,3.53
2022-08-05T21:12:07.354Z,3.65
2022-08-05T21:14:13.608Z,3.88
2022-08-05T21:16:41.079Z,3.80
2022-08-05T21:19:07.676Z,3.92
2022-08-05T21:21:43.871Z,4.00
2022-08-05T21:24:16.994Z,4.25
2022-08-05T21:26:58.447Z,2.83
2022-08-05T21:29:26.627Z,3.80
2022-08-05T21:31:58.102Z,4.10
2022-08-05T21:34:24.732Z,3.95
2022-08-05T21:36:51.754Z,3.88
2022-08-05T21:39:26.603Z,3.50
2022-08-05T21:42:01.954Z,3.17
2022-08-05T21:44:30.047Z,2.50
2022-08-05T21:46:58.049Z,2.58
2022-08-05T21:49:58.722Z,2.58
2022-08-05T21:52:21.395Z,2.13
2022-08-05T21:54:51.177Z,2.45
2022-08-05T21:57:31.674Z,1.88
2022-08-05T22:00:11.136Z,2.10
2022-08-05T22:02:38.281Z,1.92
2022-08-05T22:05:05.475Z,1.85
2022-08-05T22:07:39.399Z,1.70
2022-08-05T22:10:26.573Z,1.38
2022-08-05T22:12:57.253Z,1.90
2022-08-05T22:16:02.653Z,1.77
2022-08-05T22:18:11.136Z,1.50
2022-08-05T22:20:39.042Z,1.70
2022-08-05T22:23:17.009Z,1.80
2022-08-05T22:26:09.996Z,1.77
2022-08-05T22:28:33.710Z,1.60
2022-08-05T22:31:05.274Z,1.50
2022-08-05T22:33:56.890Z,1.40
2022-08-05T22:36:19.088Z,1.70
2022-08-05T22:38:50.471Z,1.58
2022-08-05T22:41:26.291Z,1.60
2022-08-05T22:44:05.114Z,1.50
2022-08-05T22:46:31.930Z,1.75
2022-08-05T22:48:59.302Z,1.75
2022-08-05T22:52:02.573Z,2.42
2022-08-05T22:54:13.062Z,1.60
2022-08-05T22:56:40.711Z,1.58
2022-08-05T22:59:45.304Z,1.58
2022-08-05T23:02:04.369Z,1.63
2022-08-05T23:04:32.924Z,1.42
2022-08-05T23:06:59.540Z,1.48
2022-08-05T23:09:27.652Z,1.38
2022-08-05T23:12:12.924Z,1.75
2022-08-05T23:14:39.540Z,1.83
2022-08-05T23:17:10.415Z,1.65
2022-08-05T23:19:46.625Z,1.70
2022-08-05T23:22:19.270Z,1.67
2022-08-05T23:24:53.780Z,1.63
2022-08-05T23:27:20.792Z,1.65
2022-08-05T23:29:50.657Z,1.52
2022-08-05T23:32:17.549Z,1.58
2022-08-05T23:34:49.888Z,1.50
2022-08-05T23:37:17.824Z,1.50
2022-08-05T23:39:53.660Z,1.70
2022-08-05T23:42:23.483Z,1.48
2022-08-05T23:44:56.256Z,1.58
2022-08-05T23:47:25.145Z,1.73
2022-08-05T23:49:52.189Z,1.63
2022-08-05T23:52:25.267Z,1.88
2022-08-05T23:54:53.372Z,1.30
2022-08-05T23:57:20.054Z,1.67
